Tampa — WDB4806 — position and weather

sailwx.info

Track history (hours):
 
Tides and Currents Weather Stations Pressure Air Temp Water Temp Dewpoint Dewpoint Depression Visibility Wind Speed Wind Dir Waves Ship Positions

Tampa

Owner: Tampa Pilots LLC, Tampa, FL. More information available from US FCC via Universal Licensing System and Coast Guard Vessel Documentation Center.

Last reported at 2014-Dec-17 00:19 UTC. Time now 2014-Dec-21 11:22 UTC.
Position N 27°35' W 082°46'.

Length 19 m; draft 1.5 m.

Type: Pilot. MMSI: 366902570.

Date/timePositionNaut miles runAvg speedWind from/ knotsBaromVisibWave heightAir tempDewpointWater temp
2014-Dec-17 00:19N 27°35' W 082°46'  
2014-Dec-11 11:04N 27°35' W 082°46'  
2014-Dec-08 17:28N 27°35' W 082°46'0 0.0
2014-Dec-08 16:31N 27°35' W 082°46'0 0.0
2014-Dec-08 14:31N 27°35' W 082°46'0 0.1
2014-Dec-08 13:33N 27°35' W 082°45'6 5.9
2014-Dec-08 12:33N 27°36' W 082°52'1 0.8
2014-Dec-08 11:31N 27°37' W 082°52'7 7.1
2014-Dec-08 10:29N 27°37' W 082°44'8 8.1
2014-Dec-08 09:33N 27°36' W 082°52'6 5.8
2014-Dec-08 08:33N 27°35' W 082°46'0 0.0
2014-Dec-08 07:33N 27°35' W 082°46'0 0.0
2014-Dec-08 06:33N 27°35' W 082°46'0 0.0
2014-Dec-08 05:33N 27°35' W 082°46'0 0.0
2014-Dec-08 04:33N 27°35' W 082°46'0 0.0
2014-Dec-08 03:33N 27°35' W 082°46'1 1.0
2014-Dec-08 02:24N 27°36' W 082°45'3 3.7
2014-Dec-08 01:33N 27°36' W 082°49'3 3.0
2014-Dec-08 00:33N 27°35' W 082°46'1 0.6
2014-Dec-07 23:33N 27°36' W 082°45'1 0.6
2014-Dec-07 22:33N 27°35' W 082°46'0 0.0
2014-Dec-07 21:19N 27°35' W 082°46'0 0.0
2014-Dec-07 18:31N 27°35' W 082°46'0 0.0
2014-Dec-07 17:31N 27°35' W 082°46'0 0.0
2014-Dec-07 16:31N 27°35' W 082°46'0 0.0
2014-Dec-07 15:25N 27°35' W 082°46'0 0.0
2014-Dec-07 14:31N 27°35' W 082°46'0 0.0
2014-Dec-07 13:28N 27°35' W 082°46'5 5.8
2014-Dec-07 12:34N 27°36' W 082°51'5 5.2
2014-Dec-07 11:33N 27°36' W 082°45'3 3.3
2014-Dec-07 10:34N 27°36' W 082°49'3 3.4
2014-Dec-07 09:33N 27°35' W 082°46'0 0.0
2014-Dec-07 08:33N 27°35' W 082°46'0 0.0
2014-Dec-07 07:33N 27°35' W 082°46'0 0.0
2014-Dec-07 06:33N 27°35' W 082°46'0 0.0
2014-Dec-07 05:30N 27°35' W 082°46'0 0.0
2014-Dec-07 04:33N 27°35' W 082°46'2 2.3
2014-Dec-07 03:33N 27°37' W 082°48'2 1.5
2014-Dec-07 02:03N 27°35' W 082°46'0 0.0
2014-Dec-07 01:33N 27°35' W 082°46'5 4.9
2014-Dec-07 00:33N 27°36' W 082°51'  
Track history (hours):
 
Tides and Currents Weather Stations Pressure Air Temp Water Temp Dewpoint Dewpoint Depression Visibility Wind Speed Wind Dir Waves Ship Positions

Tampa

Owner: Tampa Pilots LLC, Tampa, FL. More information available from US FCC via Universal Licensing System and Coast Guard Vessel Documentation Center.

Last reported at 2014-Dec-17 00:19 UTC. Time now 2014-Dec-21 11:22 UTC.
Position N 27°35' W 082°46'.

Length 19 m; draft 1.5 m.

Type: Pilot. MMSI: 366902570.

Date/timePositionNaut miles runAvg speedWind from/ knotsBaromVisibWave heightAir tempDewpointWater temp
2014-Dec-17 00:19N 27°35' W 082°46'  
2014-Dec-11 11:04N 27°35' W 082°46'  
2014-Dec-08 17:28N 27°35' W 082°46'0 0.0
2014-Dec-08 16:31N 27°35' W 082°46'0 0.0
2014-Dec-08 14:31N 27°35' W 082°46'0 0.1
2014-Dec-08 13:33N 27°35' W 082°45'6 5.9
2014-Dec-08 12:33N 27°36' W 082°52'1 0.8
2014-Dec-08 11:31N 27°37' W 082°52'7 7.1
2014-Dec-08 10:29N 27°37' W 082°44'8 8.1
2014-Dec-08 09:33N 27°36' W 082°52'6 5.8
2014-Dec-08 08:33N 27°35' W 082°46'0 0.0
2014-Dec-08 07:33N 27°35' W 082°46'0 0.0
2014-Dec-08 06:33N 27°35' W 082°46'0 0.0
2014-Dec-08 05:33N 27°35' W 082°46'0 0.0
2014-Dec-08 04:33N 27°35' W 082°46'0 0.0
2014-Dec-08 03:33N 27°35' W 082°46'1 1.0
2014-Dec-08 02:24N 27°36' W 082°45'3 3.7
2014-Dec-08 01:33N 27°36' W 082°49'3 3.0
2014-Dec-08 00:33N 27°35' W 082°46'1 0.6
2014-Dec-07 23:33N 27°36' W 082°45'1 0.6
2014-Dec-07 22:33N 27°35' W 082°46'0 0.0
2014-Dec-07 21:19N 27°35' W 082°46'0 0.0
2014-Dec-07 18:31N 27°35' W 082°46'0 0.0
2014-Dec-07 17:31N 27°35' W 082°46'0 0.0
2014-Dec-07 16:31N 27°35' W 082°46'0 0.0
2014-Dec-07 15:25N 27°35' W 082°46'0 0.0
2014-Dec-07 14:31N 27°35' W 082°46'0 0.0
2014-Dec-07 13:28N 27°35' W 082°46'5 5.8
2014-Dec-07 12:34N 27°36' W 082°51'5 5.2
2014-Dec-07 11:33N 27°36' W 082°45'3 3.3
2014-Dec-07 10:34N 27°36' W 082°49'3 3.4
2014-Dec-07 09:33N 27°35' W 082°46'0 0.0
2014-Dec-07 08:33N 27°35' W 082°46'0 0.0
2014-Dec-07 07:33N 27°35' W 082°46'0 0.0
2014-Dec-07 06:33N 27°35' W 082°46'0 0.0
2014-Dec-07 05:30N 27°35' W 082°46'0 0.0
2014-Dec-07 04:33N 27°35' W 082°46'2 2.3
2014-Dec-07 03:33N 27°37' W 082°48'2 1.5
2014-Dec-07 02:03N 27°35' W 082°46'0 0.0
2014-Dec-07 01:33N 27°35' W 082°46'5 4.9
2014-Dec-07 00:33N 27°36' W 082°51'  

Dump ship's entire track history